Time;durP1;ratioP1;P1;durP2;ratioP2;P2;SDS_P1;SDS_P2;PMS_P1;PMS_P2;Temp;Humidity;BMP_temperature;BMP_pressure;BME280_temperature;BME280_humidity;BME280_pressure;Samples;Min_cycle;Max_cycle;Signal;HPM_P1;HPM_P2
2022/12/01 00:00:28;;;;;;;;;;;0.20;99.90;;;;;;2608991;46;19938;31
2022/12/01 00:03:02;;;;;;;;;;;0.20;99.90;;;;;;2603650;54;19938;31
2022/12/01 00:05:36;;;;;;;;;;;0.20;99.90;;;;;;2622098;46;20779;31
2022/12/01 00:08:11;;;;;;;;;;;0.20;99.90;;;;;;2603705;54;20764;31
2022/12/01 00:10:45;;;;;;;;;;;0.30;99.90;;;;;;2602871;54;20731;31
2022/12/01 00:13:19;;;;;;;;;;;0.20;99.90;;;;;;2603491;54;20085;31
2022/12/01 00:15:56;;;;;;;;;;;0.30;99.90;;;;;;2603574;54;19989;31
2022/12/01 00:18:29;;;;;;;;;;;0.20;99.90;;;;;;2702505;39;20914;31
2022/12/01 00:21:03;;;;;;;;;;;0.20;99.90;;;;;;2603285;54;20789;31
2022/12/01 00:23:38;;;;;;;;;;;0.20;99.90;;;;;;2621809;46;19935;31
2022/12/01 00:26:12;;;;;;;;;;;0.20;99.90;;;;;;2603678;54;19960;31
2022/12/01 00:28:50;;;;;;;;;;;0.20;99.90;;;;;;2603392;54;20840;31
2022/12/01 00:31:27;;;;;;;;;;;0.30;99.90;;;;;;2603439;54;20775;31
2022/12/01 00:34:02;;;;;;;;;;;0.30;99.90;;;;;;2621965;46;19941;31
2022/12/01 00:36:44;;;;;;;;;;;0.30;99.90;;;;;;2603340;54;19935;31
2022/12/01 00:39:17;;;;;;;;;;;0.30;99.90;;;;;;2621947;46;19993;31
2022/12/01 00:41:53;;;;;;;;;;;0.30;99.90;;;;;;2603519;54;19955;31
2022/12/01 00:44:27;;;;;;;;;;;0.30;99.90;;;;;;2603430;54;20741;31
2022/12/01 00:47:06;;;;;;;;;;;0.30;99.90;;;;;;2621579;46;20710;31
2022/12/01 00:49:41;;;;;;;;;;;0.20;99.90;;;;;;2621947;46;19942;31
2022/12/01 00:52:15;;;;;;;;;;;0.20;99.90;;;;;;2613252;46;19941;31
2022/12/01 00:54:50;;;;;;;;;;;0.10;99.90;;;;;;2603386;54;20786;31
2022/12/01 00:57:24;;;;;;;;;;;0.20;99.90;;;;;;2603557;54;19935;31
2022/12/01 00:59:58;;;;;;;;;;;0.10;99.90;;;;;;2622000;46;19942;31
2022/12/01 01:02:35;;;;;;;;;;;0.10;99.90;;;;;;2621698;46;19935;31
2022/12/01 01:05:10;;;;;;;;;;;0.10;99.90;;;;;;2603233;54;19957;31
2022/12/01 01:07:45;;;;;;;;;;;0.10;99.90;;;;;;2621703;46;19935;31
2022/12/01 01:10:21;;;;;;;;;;;0.10;99.90;;;;;;2603358;54;19943;31
2022/12/01 01:12:58;;;;;;;;;;;0.10;99.90;;;;;;2603338;54;19960;31
2022/12/01 01:15:32;;;;;;;;;;;0.10;99.90;;;;;;2602960;54;20846;31
2022/12/01 01:18:09;;;;;;;;;;;0.10;99.90;;;;;;2602405;54;20791;31
2022/12/01 01:20:43;;;;;;;;;;;0.10;99.90;;;;;;2602738;54;20712;31
2022/12/01 01:23:17;;;;;;;;;;;0.10;99.90;;;;;;2603503;54;19934;31
2022/12/01 01:25:51;;;;;;;;;;;0.10;99.90;;;;;;2603918;54;20786;31
2022/12/01 01:28:24;;;;;;;;;;;0.00;99.90;;;;;;2604025;54;19942;31
2022/12/01 01:30:58;;;;;;;;;;;1.20;99.90;;;;;;2604001;54;19935;31
2022/12/01 01:33:34;;;;;;;;;;;0.10;99.90;;;;;;2604138;54;19961;31
2022/12/01 01:36:10;;;;;;;;;;;0.10;99.90;;;;;;2622610;46;19981;31
2022/12/01 01:38:44;;;;;;;;;;;0.10;99.90;;;;;;2604163;54;20771;31
2022/12/01 01:41:18;;;;;;;;;;;0.00;99.90;;;;;;2604164;54;19961;31
2022/12/01 01:43:51;;;;;;;;;;;0.00;99.90;;;;;;2604088;54;19942;31
2022/12/01 01:46:25;;;;;;;;;;;0.00;99.90;;;;;;2622573;46;19954;31
2022/12/01 01:49:03;;;;;;;;;;;1.00;99.90;;;;;;2603815;54;19935;31
2022/12/01 01:51:38;;;;;;;;;;;0.00;99.90;;;;;;2603834;54;20774;31
2022/12/01 01:54:14;;;;;;;;;;;0.00;99.90;;;;;;2603863;54;19935;31
2022/12/01 01:56:47;;;;;;;;;;;0.00;99.90;;;;;;2603962;54;19935;31
2022/12/01 01:59:23;;;;;;;;;;;0.00;99.90;;;;;;2603878;54;20693;31
2022/12/01 02:01:58;;;;;;;;;;;0.00;99.90;;;;;;2603764;54;19934;31
2022/12/01 02:04:33;;;;;;;;;;;0.00;99.90;;;;;;2603759;54;19943;31
2022/12/01 02:07:09;;;;;;;;;;;0.00;99.90;;;;;;2603776;54;19941;31
2022/12/01 02:09:44;;;;;;;;;;;0.00;99.90;;;;;;2603910;54;20748;31
2022/12/01 02:12:23;;;;;;;;;;;0.00;99.90;;;;;;2622465;46;19935;31
2022/12/01 02:14:59;;;;;;;;;;;0.00;99.90;;;;;;2603852;54;19998;31
2022/12/01 02:17:36;;;;;;;;;;;0.00;99.90;;;;;;2622544;46;19934;31
2022/12/01 02:20:24;;;;;;;;;;;0.00;99.90;;;;;;2622250;46;20699;31
2022/12/01 02:23:02;;;;;;;;;;;0.00;99.90;;;;;;2622479;46;20821;31
2022/12/01 02:25:39;;;;;;;;;;;0.10;99.90;;;;;;2603854;54;19934;31
2022/12/01 02:28:19;;;;;;;;;;;0.10;99.90;;;;;;2603634;54;20701;31
2022/12/01 02:30:56;;;;;;;;;;;0.10;99.90;;;;;;2603605;54;20066;31
2022/12/01 02:33:31;;;;;;;;;;;0.20;99.90;;;;;;2603466;54;20831;31
2022/12/01 02:36:06;;;;;;;;;;;0.20;99.90;;;;;;2603985;54;20764;31
2022/12/01 02:38:40;;;;;;;;;;;0.20;99.90;;;;;;2603969;54;19934;31
2022/12/01 02:41:15;;;;;;;;;;;0.20;99.90;;;;;;2622458;46;19934;31
2022/12/01 02:43:50;;;;;;;;;;;0.20;99.90;;;;;;2622240;46;19941;31
2022/12/01 02:46:28;;;;;;;;;;;0.20;99.90;;;;;;2603974;54;20804;31
2022/12/01 02:49:02;;;;;;;;;;;0.30;99.90;;;;;;2603867;54;20878;31
2022/12/01 02:51:36;;;;;;;;;;;0.30;99.90;;;;;;2622366;46;19941;31
2022/12/01 02:54:10;;;;;;;;;;;0.30;99.90;;;;;;2621834;46;19942;31
2022/12/01 02:56:45;;;;;;;;;;;0.30;99.90;;;;;;2603302;54;20741;31
2022/12/01 02:59:20;;;;;;;;;;;0.30;99.90;;;;;;2604022;54;19961;31
2022/12/01 03:02:08;;;;;;;;;;;0.30;99.90;;;;;;2603616;54;19934;31
2022/12/01 03:04:51;;;;;;;;;;;0.30;99.90;;;;;;2603492;54;19969;31
2022/12/01 03:07:40;;;;;;;;;;;0.30;99.90;;;;;;2622491;46;19942;31
2022/12/01 03:10:18;;;;;;;;;;;1.40;99.90;;;;;;2622330;46;19939;31
2022/12/01 03:12:54;;;;;;;;;;;0.40;99.90;;;;;;2603937;54;20012;31
2022/12/01 03:15:30;;;;;;;;;;;0.40;99.90;;;;;;2603876;54;19941;31
2022/12/01 03:18:05;;;;;;;;;;;0.40;99.90;;;;;;2622296;46;19941;31
2022/12/01 03:20:46;;;;;;;;;;;0.40;99.90;;;;;;2603528;54;19942;31
2022/12/01 03:23:21;;;;;;;;;;;0.40;99.90;;;;;;2622130;46;20769;31
2022/12/01 03:25:56;;;;;;;;;;;0.40;99.90;;;;;;2603621;54;20790;31
2022/12/01 03:28:32;;;;;;;;;;;0.50;99.90;;;;;;2603779;54;20767;31
2022/12/01 03:31:07;;;;;;;;;;;0.60;99.90;;;;;;2603593;54;19935;31
2022/12/01 03:33:42;;;;;;;;;;;0.70;99.90;;;;;;2622460;46;19942;31
2022/12/01 03:36:18;;;;;;;;;;;0.80;99.90;;;;;;2603592;54;19941;31
2022/12/01 03:38:53;;;;;;;;;;;0.90;99.90;;;;;;2603816;54;19935;31
2022/12/01 03:41:27;;;;;;;;;;;0.90;99.90;;;;;;2603855;54;19954;31
2022/12/01 03:44:02;;;;;;;;;;;0.90;99.90;;;;;;2603477;54;20775;31
2022/12/01 03:46:39;;;;;;;;;;;0.90;99.90;;;;;;2622150;46;19934;31
2022/12/01 03:49:14;;;;;;;;;;;0.90;99.90;;;;;;2622320;46;20756;31
2022/12/01 03:51:54;;;;;;;;;;;0.80;99.90;;;;;;2603874;54;20023;31
2022/12/01 03:54:31;;;;;;;;;;;0.80;99.90;;;;;;2603370;54;19939;31
2022/12/01 03:57:05;;;;;;;;;;;0.80;99.90;;;;;;2603933;54;19960;31
2022/12/01 03:59:39;;;;;;;;;;;0.80;99.90;;;;;;2622068;46;20854;31
2022/12/01 04:02:13;;;;;;;;;;;0.80;99.90;;;;;;2603611;54;20740;31
2022/12/01 04:04:47;;;;;;;;;;;0.80;99.90;;;;;;2603524;54;19935;31
2022/12/01 04:07:24;;;;;;;;;;;0.80;99.90;;;;;;2603418;54;19950;31
2022/12/01 04:09:58;;;;;;;;;;;0.80;99.90;;;;;;2621898;46;19934;31
2022/12/01 04:12:31;;;;;;;;;;;0.80;99.90;;;;;;2622398;46;19935;31
2022/12/01 04:15:05;;;;;;;;;;;0.80;99.90;;;;;;2603846;54;19962;31
2022/12/01 04:17:42;;;;;;;;;;;0.80;99.90;;;;;;2603557;54;19957;31
2022/12/01 04:20:16;;;;;;;;;;;0.80;99.90;;;;;;2622037;46;19942;31
2022/12/01 04:22:53;;;;;;;;;;;0.70;99.90;;;;;;2603615;54;19993;31
2022/12/01 04:25:29;;;;;;;;;;;0.80;99.90;;;;;;2621823;46;19946;31
2022/12/01 04:28:04;;;;;;;;;;;0.80;99.90;;;;;;2603525;54;19942;31
2022/12/01 04:30:40;;;;;;;;;;;0.80;99.90;;;;;;2603443;54;19942;31
2022/12/01 04:33:13;;;;;;;;;;;0.70;99.90;;;;;;2622030;46;20768;31
2022/12/01 04:35:48;;;;;;;;;;;0.70;99.90;;;;;;2603400;54;19934;31
2022/12/01 04:38:22;;;;;;;;;;;0.70;99.90;;;;;;2618613;46;19958;31
2022/12/01 04:41:09;;;;;;;;;;;0.70;99.90;;;;;;2603665;54;19957;31
2022/12/01 04:43:43;;;;;;;;;;;0.70;99.90;;;;;;2603560;54;19938;31
2022/12/01 04:46:17;;;;;;;;;;;0.70;99.90;;;;;;2603649;54;20758;31
2022/12/01 04:48:52;;;;;;;;;;;0.70;99.90;;;;;;2603368;54;19941;31
2022/12/01 04:51:26;;;;;;;;;;;0.70;99.90;;;;;;2603725;54;19935;31
2022/12/01 04:54:02;;;;;;;;;;;0.80;99.90;;;;;;2622057;46;19934;31
2022/12/01 04:56:39;;;;;;;;;;;0.70;99.90;;;;;;2603355;54;19939;31
2022/12/01 04:59:13;;;;;;;;;;;0.80;99.90;;;;;;2621798;47;19942;31
2022/12/01 05:01:47;;;;;;;;;;;0.80;99.90;;;;;;2603377;54;19935;31
2022/12/01 05:04:22;;;;;;;;;;;0.80;99.90;;;;;;2603327;54;19934;31
2022/12/01 05:06:57;;;;;;;;;;;0.80;99.90;;;;;;2603356;54;19934;31
2022/12/01 05:09:32;;;;;;;;;;;1.80;99.90;;;;;;2603385;54;19942;31
2022/12/01 05:12:10;;;;;;;;;;;0.80;99.90;;;;;;2603374;54;19941;31
2022/12/01 05:14:45;;;;;;;;;;;0.90;99.90;;;;;;2603203;54;20786;31
2022/12/01 05:17:19;;;;;;;;;;;0.90;99.90;;;;;;2603252;54;19935;31
2022/12/01 05:22:38;;;;;;;;;;;0.80;99.90;;;;;;2603393;54;19935;31
2022/12/01 05:25:33;;;;;;;;;;;0.80;99.90;;;;;;2603099;54;20044;31
2022/12/01 05:28:11;;;;;;;;;;;0.80;99.90;;;;;;2603422;54;20693;31
2022/12/01 05:30:45;;;;;;;;;;;0.80;99.90;;;;;;2603341;54;19938;31
2022/12/01 05:33:19;;;;;;;;;;;0.90;99.90;;;;;;2603463;54;19935;31
2022/12/01 05:35:53;;;;;;;;;;;0.90;99.90;;;;;;2622162;47;20784;31
2022/12/01 05:38:28;;;;;;;;;;;0.90;99.90;;;;;;2603321;54;19942;31
2022/12/01 05:41:02;;;;;;;;;;;0.90;99.90;;;;;;2603329;54;19982;31
2022/12/01 05:43:39;;;;;;;;;;;0.90;99.90;;;;;;2603562;54;19942;31
2022/12/01 05:46:13;;;;;;;;;;;0.90;99.90;;;;;;2621835;47;20760;31
2022/12/01 05:48:47;;;;;;;;;;;0.90;99.90;;;;;;2621951;47;19968;31
2022/12/01 05:51:21;;;;;;;;;;;0.90;99.90;;;;;;2603034;54;19942;31
2022/12/01 05:53:53;;;;;;;;;;;0.90;99.90;;;;;;2602386;54;22248;31
2022/12/01 05:56:28;;;;;;;;;;;0.90;99.90;;;;;;2602923;54;19941;31
2022/12/01 05:59:07;;;;;;;;;;;0.90;99.90;;;;;;2621350;47;20745;31
2022/12/01 06:01:42;;;;;;;;;;;1.00;99.90;;;;;;2603293;54;19935;31
2022/12/01 06:04:17;;;;;;;;;;;1.00;99.90;;;;;;2603328;54;19954;31
2022/12/01 06:06:52;;;;;;;;;;;1.00;99.90;;;;;;2603223;54;20007;31
2022/12/01 06:09:25;;;;;;;;;;;1.00;99.90;;;;;;2603457;54;20829;31
2022/12/01 06:12:02;;;;;;;;;;;1.00;99.90;;;;;;2603885;54;20715;31
2022/12/01 06:14:40;;;;;;;;;;;1.00;99.90;;;;;;2603714;54;19946;31
2022/12/01 06:17:15;;;;;;;;;;;1.10;99.90;;;;;;2604151;54;19935;31
2022/12/01 06:19:49;;;;;;;;;;;1.10;99.90;;;;;;2603890;54;20734;31
2022/12/01 06:22:27;;;;;;;;;;;1.10;99.90;;;;;;2603212;54;19957;31
2022/12/01 06:25:02;;;;;;;;;;;1.10;99.90;;;;;;2603955;54;19942;31
2022/12/01 06:27:37;;;;;;;;;;;1.10;99.90;;;;;;2622409;46;20807;31
2022/12/01 06:30:15;;;;;;;;;;;1.10;99.90;;;;;;2603808;54;19935;31
2022/12/01 06:32:49;;;;;;;;;;;1.10;99.90;;;;;;2604058;54;20750;31
2022/12/01 06:35:23;;;;;;;;;;;1.10;99.90;;;;;;2622658;46;19989;31
2022/12/01 06:37:59;;;;;;;;;;;1.10;99.90;;;;;;2603703;54;20021;31
2022/12/01 06:40:34;;;;;;;;;;;1.10;99.90;;;;;;2604192;54;19935;31
2022/12/01 06:43:09;;;;;;;;;;;1.10;99.90;;;;;;2604189;54;20719;31
2022/12/01 06:45:45;;;;;;;;;;;1.10;99.90;;;;;;2622141;46;19942;31
2022/12/01 06:48:19;;;;;;;;;;;1.10;99.90;;;;;;2622263;46;19986;31
2022/12/01 06:50:58;;;;;;;;;;;1.10;99.90;;;;;;2621333;46;19956;31
2022/12/01 06:53:33;;;;;;;;;;;1.10;99.90;;;;;;2614157;46;19934;31
2022/12/01 06:56:07;;;;;;;;;;;1.10;99.90;;;;;;2621536;46;19934;31
2022/12/01 06:58:40;;;;;;;;;;;1.10;99.90;;;;;;2621743;46;19934;31
2022/12/01 07:01:17;;;;;;;;;;;1.10;99.90;;;;;;2622389;46;20751;31
2022/12/01 07:03:51;;;;;;;;;;;1.10;99.90;;;;;;2603072;54;19934;31
2022/12/01 07:06:25;;;;;;;;;;;1.20;99.90;;;;;;2603149;54;20787;31
2022/12/01 07:08:59;;;;;;;;;;;1.20;99.90;;;;;;2603790;54;19934;31
2022/12/01 07:11:35;;;;;;;;;;;1.20;99.90;;;;;;2622010;46;19946;31
2022/12/01 07:14:14;;;;;;;;;;;1.20;99.90;;;;;;2603860;54;20708;31
2022/12/01 07:16:51;;;;;;;;;;;1.30;99.90;;;;;;2603892;54;19935;31
2022/12/01 07:19:25;;;;;;;;;;;1.30;99.90;;;;;;2603782;54;19990;31
2022/12/01 07:21:59;;;;;;;;;;;1.30;99.90;;;;;;2622488;46;20756;31
2022/12/01 07:24:33;;;;;;;;;;;1.30;99.90;;;;;;2603588;54;20716;31
2022/12/01 07:27:08;;;;;;;;;;;1.30;99.90;;;;;;2603644;54;19939;31
2022/12/01 07:29:46;;;;;;;;;;;1.40;99.90;;;;;;2603593;54;19935;31
2022/12/01 07:32:24;;;;;;;;;;;1.40;99.90;;;;;;2603898;54;20785;31
2022/12/01 07:34:58;;;;;;;;;;;1.40;99.90;;;;;;2603841;54;20834;31
2022/12/01 07:37:32;;;;;;;;;;;1.40;99.90;;;;;;2603770;54;20716;31
2022/12/01 07:40:06;;;;;;;;;;;1.40;99.90;;;;;;2603634;54;19942;31
2022/12/01 07:42:42;;;;;;;;;;;1.40;99.90;;;;;;2622157;46;19962;31
2022/12/01 07:45:16;;;;;;;;;;;1.50;99.90;;;;;;2603675;54;20764;31
2022/12/01 07:47:52;;;;;;;;;;;1.50;99.90;;;;;;2622444;46;19960;31
2022/12/01 07:50:29;;;;;;;;;;;1.50;99.90;;;;;;2622423;46;20010;31
2022/12/01 07:53:03;;;;;;;;;;;1.50;99.90;;;;;;2603687;54;20804;31
2022/12/01 07:55:38;;;;;;;;;;;1.60;99.90;;;;;;2603756;54;19941;31
2022/12/01 07:58:12;;;;;;;;;;;1.60;99.90;;;;;;2603769;54;19935;31
2022/12/01 08:00:48;;;;;;;;;;;1.60;99.90;;;;;;2622090;46;19960;31
2022/12/01 08:03:26;;;;;;;;;;;1.60;99.90;;;;;;2603732;54;19945;31
2022/12/01 08:06:01;;;;;;;;;;;1.60;99.90;;;;;;2603537;54;20012;31
2022/12/01 08:08:36;;;;;;;;;;;1.70;99.90;;;;;;2603704;54;19935;31
2022/12/01 08:11:10;;;;;;;;;;;1.70;99.90;;;;;;2603596;54;19942;31
2022/12/01 08:13:46;;;;;;;;;;;1.70;99.90;;;;;;2603728;54;19943;31
2022/12/01 08:16:24;;;;;;;;;;;1.70;99.90;;;;;;2603619;54;20808;31
2022/12/01 08:19:01;;;;;;;;;;;1.70;99.90;;;;;;2603744;54;19935;31
2022/12/01 08:21:36;;;;;;;;;;;1.80;99.90;;;;;;2621871;46;20094;31
2022/12/01 08:24:11;;;;;;;;;;;1.80;99.90;;;;;;2622214;46;19943;31
2022/12/01 08:26:45;;;;;;;;;;;1.80;99.90;;;;;;2603600;54;19935;31
2022/12/01 08:29:18;;;;;;;;;;;1.90;99.90;;;;;;2603368;54;20746;31
2022/12/01 08:31:53;;;;;;;;;;;1.90;99.90;;;;;;2621974;46;19950;31
2022/12/01 08:34:30;;;;;;;;;;;1.90;99.90;;;;;;2603457;54;19973;31
2022/12/01 08:37:04;;;;;;;;;;;1.90;99.90;;;;;;2621940;46;20783;31
2022/12/01 08:39:38;;;;;;;;;;;1.90;99.90;;;;;;2603696;54;20730;31
2022/12/01 08:42:15;;;;;;;;;;;2.00;99.90;;;;;;2603369;54;20799;31
2022/12/01 08:44:49;;;;;;;;;;;2.00;99.90;;;;;;2603655;54;20049;31
2022/12/01 08:47:24;;;;;;;;;;;2.00;99.90;;;;;;2622032;46;19935;31
2022/12/01 08:50:03;;;;;;;;;;;2.00;99.90;;;;;;2622062;46;19946;31
2022/12/01 08:52:36;;;;;;;;;;;2.10;99.90;;;;;;2603673;54;19946;31
2022/12/01 08:55:12;;;;;;;;;;;2.10;99.90;;;;;;2602980;54;20748;31
2022/12/01 08:57:46;;;;;;;;;;;2.10;99.90;;;;;;2602831;54;20739;31
2022/12/01 09:00:22;;;;;;;;;;;2.20;99.90;;;;;;2621963;46;20714;31
2022/12/01 09:02:58;;;;;;;;;;;2.10;99.90;;;;;;2603624;54;20049;31
2022/12/01 09:05:35;;;;;;;;;;;2.10;99.90;;;;;;2603528;54;19970;31
2022/12/01 09:11:01;;;;;;;;;;;2.20;99.90;;;;;;2603196;54;19986;31
2022/12/01 09:13:34;;;;;;;;;;;2.20;99.90;;;;;;2702025;39;20990;31
2022/12/01 09:16:10;;;;;;;;;;;2.20;99.90;;;;;;2603433;54;20788;31
2022/12/01 09:18:44;;;;;;;;;;;2.20;99.90;;;;;;2603415;54;20812;31
2022/12/01 09:21:20;;;;;;;;;;;2.20;99.90;;;;;;2603431;54;20781;31
2022/12/01 09:23:56;;;;;;;;;;;2.20;99.90;;;;;;2603385;54;20789;31
2022/12/01 09:26:32;;;;;;;;;;;2.20;99.90;;;;;;2621550;47;19934;31
2022/12/01 09:29:06;;;;;;;;;;;2.20;99.90;;;;;;2621805;47;20766;31
2022/12/01 09:31:40;;;;;;;;;;;2.20;99.90;;;;;;2603429;54;19935;31
2022/12/01 09:34:15;;;;;;;;;;;2.20;99.90;;;;;;2621960;47;20708;31
2022/12/01 09:36:53;;;;;;;;;;;2.20;99.90;;;;;;2603190;54;20005;31
2022/12/01 09:39:27;;;;;;;;;;;2.20;99.90;;;;;;2603279;54;19986;31
2022/12/01 09:42:01;;;;;;;;;;;2.30;99.90;;;;;;2603506;54;19935;31
2022/12/01 09:44:41;;;;;;;;;;;2.30;99.90;;;;;;2603888;54;20746;31
2022/12/01 09:47:17;;;;;;;;;;;2.30;99.90;;;;;;2622427;46;19950;31
2022/12/01 09:49:57;;;;;;;;;;;2.30;99.90;;;;;;2604152;54;19935;31
2022/12/01 09:52:34;;;;;;;;;;;2.30;99.90;;;;;;2604067;54;20760;31
2022/12/01 09:55:09;;;;;;;;;;;2.30;99.90;;;;;;2604240;54;19942;31
2022/12/01 09:57:43;;;;;;;;;;;2.30;99.90;;;;;;2604078;54;19946;31
2022/12/01 10:00:20;;;;;;;;;;;2.30;99.90;;;;;;2604164;54;20780;31
2022/12/01 10:02:55;;;;;;;;;;;2.40;99.90;;;;;;2603871;54;20787;31
2022/12/01 10:05:31;;;;;;;;;;;2.30;99.90;;;;;;2604046;54;19938;31
2022/12/01 10:08:12;;;;;;;;;;;2.40;99.90;;;;;;2603954;54;20036;31
2022/12/01 10:10:47;;;;;;;;;;;2.40;99.90;;;;;;2604207;54;19941;31
2022/12/01 10:13:22;;;;;;;;;;;2.40;99.90;;;;;;2622363;46;19942;31
2022/12/01 10:15:57;;;;;;;;;;;2.40;99.90;;;;;;2603814;54;19942;31
2022/12/01 10:18:34;;;;;;;;;;;2.40;99.90;;;;;;2622664;46;19935;31
2022/12/01 10:21:10;;;;;;;;;;;2.40;99.90;;;;;;2622280;46;19935;31
2022/12/01 10:23:50;;;;;;;;;;;2.40;99.90;;;;;;2603843;54;19935;31
2022/12/01 10:26:27;;;;;;;;;;;2.50;99.90;;;;;;2603913;54;19942;31
2022/12/01 10:29:08;;;;;;;;;;;2.50;99.90;;;;;;2622154;46;19958;31
2022/12/01 10:31:48;;;;;;;;;;;2.40;99.90;;;;;;2603956;54;19934;31
2022/12/01 10:34:22;;;;;;;;;;;2.40;99.90;;;;;;2603869;54;19942;31
2022/12/01 10:36:56;;;;;;;;;;;2.40;99.90;;;;;;2603732;54;20792;31
2022/12/01 10:39:33;;;;;;;;;;;2.50;99.90;;;;;;2622516;46;19939;31
2022/12/01 10:42:08;;;;;;;;;;;2.50;99.90;;;;;;2622316;46;19934;31
2022/12/01 10:44:44;;;;;;;;;;;2.50;99.90;;;;;;2604020;54;19946;31
2022/12/01 10:47:19;;;;;;;;;;;2.50;99.90;;;;;;2603835;54;20775;31
2022/12/01 10:49:53;;;;;;;;;;;2.50;99.90;;;;;;2603704;54;19962;31
2022/12/01 10:52:34;;;;;;;;;;;2.50;99.90;;;;;;2622608;46;20001;31
2022/12/01 10:55:28;;;;;;;;;;;2.60;99.90;;;;;;2603850;54;19938;31
2022/12/01 10:58:06;;;;;;;;;;;2.60;99.90;;;;;;2603862;54;19958;31
2022/12/01 11:00:43;;;;;;;;;;;2.60;99.90;;;;;;2603872;54;19935;31
2022/12/01 11:03:43;;;;;;;;;;;2.60;99.90;;;;;;2603874;54;20745;31
2022/12/01 11:06:18;;;;;;;;;;;2.60;99.90;;;;;;2622284;46;19942;31
2022/12/01 11:08:53;;;;;;;;;;;2.60;99.90;;;;;;2603745;54;19934;31
2022/12/01 11:11:43;;;;;;;;;;;2.60;99.90;;;;;;2603663;54;20859;31
2022/12/01 11:14:22;;;;;;;;;;;2.60;99.90;;;;;;2603805;54;20013;31
2022/12/01 11:16:56;;;;;;;;;;;2.60;99.90;;;;;;2622418;46;19935;31
2022/12/01 11:19:32;;;;;;;;;;;2.70;99.90;;;;;;2603921;54;19973;31
2022/12/01 11:22:24;;;;;;;;;;;2.60;99.90;;;;;;2603629;54;19961;31
2022/12/01 11:24:59;;;;;;;;;;;2.70;99.90;;;;;;2603893;54;20839;31
2022/12/01 11:27:34;;;;;;;;;;;2.70;99.90;;;;;;2603722;54;19943;31
2022/12/01 11:30:17;;;;;;;;;;;2.70;99.90;;;;;;2622467;46;19985;31
2022/12/01 11:32:53;;;;;;;;;;;2.70;99.90;;;;;;2622076;46;19938;31
2022/12/01 11:35:27;;;;;;;;;;;2.70;99.90;;;;;;2622265;46;19935;31
2022/12/01 11:38:00;;;;;;;;;;;2.70;99.90;;;;;;2603602;54;19942;31
2022/12/01 11:40:56;;;;;;;;;;;2.70;99.90;;;;;;2622218;46;20852;31
2022/12/01 11:43:31;;;;;;;;;;;2.70;99.90;;;;;;2603684;54;19942;31
2022/12/01 11:46:08;;;;;;;;;;;2.70;99.90;;;;;;2603672;54;19941;31
2022/12/01 11:48:43;;;;;;;;;;;2.70;99.90;;;;;;2603763;54;19942;31
2022/12/01 11:51:26;;;;;;;;;;;2.70;99.90;;;;;;2603486;54;20767;31
2022/12/01 11:54:08;;;;;;;;;;;2.70;99.90;;;;;;2603656;54;20717;31
2022/12/01 11:56:41;;;;;;;;;;;2.70;99.90;;;;;;2702626;39;22261;31
2022/12/01 11:59:16;;;;;;;;;;;2.70;99.90;;;;;;2603585;54;20033;31
2022/12/01 12:02:05;;;;;;;;;;;2.70;99.90;;;;;;2603526;54;19941;31
2022/12/01 12:04:54;;;;;;;;;;;2.80;99.90;;;;;;2603337;54;19934;31
2022/12/01 12:07:32;;;;;;;;;;;2.80;99.90;;;;;;2621740;46;20014;31
2022/12/01 12:10:15;;;;;;;;;;;2.80;99.90;;;;;;2621833;46;20834;31
2022/12/01 12:12:55;;;;;;;;;;;2.80;99.90;;;;;;2622161;46;19941;31
2022/12/01 12:15:31;;;;;;;;;;;2.80;99.90;;;;;;2608940;46;20831;31
2022/12/01 12:18:13;;;;;;;;;;;2.80;99.90;;;;;;2622037;46;19942;31
2022/12/01 12:20:52;;;;;;;;;;;2.80;99.90;;;;;;2602923;54;20717;31
2022/12/01 12:23:31;;;;;;;;;;;2.80;99.90;;;;;;2603448;54;20742;31
2022/12/01 12:26:08;;;;;;;;;;;2.80;99.90;;;;;;2621751;46;19977;31
2022/12/01 12:28:47;;;;;;;;;;;2.80;99.90;;;;;;2622047;46;20791;31
2022/12/01 12:31:24;;;;;;;;;;;2.80;99.90;;;;;;2622158;46;19935;31
2022/12/01 12:34:13;;;;;;;;;;;2.80;99.90;;;;;;2621939;46;19989;31
2022/12/01 12:36:49;;;;;;;;;;;2.80;99.90;;;;;;2603449;54;19942;31
2022/12/01 12:39:36;;;;;;;;;;;2.70;99.90;;;;;;2621998;46;20014;31
2022/12/01 12:42:11;;;;;;;;;;;2.70;99.90;;;;;;2603530;54;20808;31
2022/12/01 12:44:48;;;;;;;;;;;2.70;99.90;;;;;;2603553;54;20706;31
2022/12/01 12:47:29;;;;;;;;;;;2.70;99.90;;;;;;2603099;54;20723;31
2022/12/01 12:50:05;;;;;;;;;;;2.70;99.90;;;;;;2622072;46;19941;31
2022/12/01 12:52:40;;;;;;;;;;;2.80;99.90;;;;;;2603434;54;20827;31
2022/12/01 12:55:17;;;;;;;;;;;2.80;99.90;;;;;;2603601;54;19997;31
2022/12/01 12:57:53;;;;;;;;;;;2.80;99.90;;;;;;2603403;54;19934;31
2022/12/01 13:00:28;;;;;;;;;;;2.90;99.90;;;;;;2621424;46;20785;31
2022/12/01 13:03:04;;;;;;;;;;;2.90;99.90;;;;;;2603368;54;19934;31
2022/12/01 13:05:40;;;;;;;;;;;2.90;99.90;;;;;;2603151;54;20026;31
2022/12/01 13:08:15;;;;;;;;;;;2.90;99.90;;;;;;2603345;54;19934;31
2022/12/01 13:10:52;;;;;;;;;;;2.80;99.90;;;;;;2603122;54;19934;31
2022/12/01 13:13:26;;;;;;;;;;;2.90;99.90;;;;;;2603423;54;19946;31
2022/12/01 13:16:03;;;;;;;;;;;2.80;99.90;;;;;;2603334;54;19935;31
2022/12/01 13:18:37;;;;;;;;;;;2.80;99.90;;;;;;2603426;54;19934;31
2022/12/01 13:21:13;;;;;;;;;;;2.80;99.90;;;;;;2604219;54;20734;31
2022/12/01 13:23:48;;;;;;;;;;;2.80;99.90;;;;;;2622522;46;19993;31
2022/12/01 13:26:28;;;;;;;;;;;2.80;99.90;;;;;;2604009;54;20725;31
2022/12/01 13:29:05;;;;;;;;;;;2.80;99.90;;;;;;2622788;46;19942;31
2022/12/01 13:31:43;;;;;;;;;;;2.80;99.90;;;;;;2604201;54;19934;31
2022/12/01 13:34:22;;;;;;;;;;;2.80;99.90;;;;;;2604122;54;19998;31
2022/12/01 13:36:58;;;;;;;;;;;2.70;99.90;;;;;;2604021;54;20868;31
2022/12/01 13:39:35;;;;;;;;;;;2.70;99.90;;;;;;2604040;54;19934;31
2022/12/01 13:42:20;;;;;;;;;;;2.70;99.90;;;;;;2622483;46;19943;31
2022/12/01 13:44:56;;;;;;;;;;;2.70;99.90;;;;;;2604185;54;20745;31
2022/12/01 13:51:04;;;;;;;;;;;2.70;99.90;;;;;;2603826;54;19993;31
2022/12/01 13:53:54;;;;;;;;;;;2.60;99.90;;;;;;2621780;46;19934;31
2022/12/01 13:56:36;;;;;;;;;;;2.60;99.90;;;;;;2604084;54;20782;31
2022/12/01 13:59:41;;;;;;;;;;;2.60;99.90;;;;;;2622362;46;19987;31
2022/12/01 14:02:31;;;;;;;;;;;2.60;99.90;;;;;;2603774;54;20791;31
2022/12/01 14:05:21;;;;;;;;;;;2.60;99.90;;;;;;2603733;54;19934;31
2022/12/01 14:07:58;;;;;;;;;;;2.60;99.90;;;;;;2604054;54;20061;31
2022/12/01 14:10:32;;;;;;;;;;;2.60;99.90;;;;;;2622683;46;19934;31
2022/12/01 14:13:07;;;;;;;;;;;2.60;99.90;;;;;;2604032;54;20741;31
2022/12/01 14:15:42;;;;;;;;;;;2.60;99.90;;;;;;2604085;54;19989;31
2022/12/01 14:18:31;;;;;;;;;;;2.60;99.90;;;;;;2603337;54;20716;31
2022/12/01 14:21:08;;;;;;;;;;;2.60;99.90;;;;;;2603593;54;20014;31
2022/12/01 14:24:00;;;;;;;;;;;2.50;99.90;;;;;;2622235;46;19961;31
2022/12/01 14:26:34;;;;;;;;;;;2.50;99.90;;;;;;2603763;54;19942;31
2022/12/01 14:29:28;;;;;;;;;;;2.60;99.90;;;;;;2604064;54;19934;31
2022/12/01 14:32:07;;;;;;;;;;;2.50;99.90;;;;;;2622266;46;20024;31
2022/12/01 14:34:41;;;;;;;;;;;2.50;99.90;;;;;;2622673;46;19946;31
2022/12/01 14:37:15;;;;;;;;;;;2.50;99.90;;;;;;2603800;54;20807;31
2022/12/01 14:39:53;;;;;;;;;;;2.50;99.90;;;;;;2603980;54;20747;31
2022/12/01 14:45:24;;;;;;;;;;;2.50;99.90;;;;;;2603618;54;20009;31
2022/12/01 14:47:59;;;;;;;;;;;2.60;99.90;;;;;;2603647;54;20723;31
2022/12/01 14:50:38;;;;;;;;;;;2.60;99.90;;;;;;2622493;46;20783;31
2022/12/01 14:53:20;;;;;;;;;;;2.50;99.90;;;;;;2622267;46;19935;31
2022/12/01 14:56:00;;;;;;;;;;;2.50;99.90;;;;;;2622184;46;20006;31
2022/12/01 14:58:37;;;;;;;;;;;2.60;99.90;;;;;;2603587;54;19939;31
2022/12/01 15:01:13;;;;;;;;;;;2.60;99.90;;;;;;2603631;54;19934;31
2022/12/01 15:03:48;;;;;;;;;;;2.60;99.90;;;;;;2604091;54;19935;31
2022/12/01 15:06:22;;;;;;;;;;;2.60;99.90;;;;;;2603565;54;19935;31
2022/12/01 15:09:07;;;;;;;;;;;2.60;99.90;;;;;;2622466;46;20770;31
2022/12/01 15:12:02;;;;;;;;;;;2.60;99.90;;;;;;2603558;54;19934;31
2022/12/01 15:14:39;;;;;;;;;;;2.60;99.90;;;;;;2622426;46;19942;31
2022/12/01 15:17:28;;;;;;;;;;;2.60;99.90;;;;;;2603912;54;20792;31
2022/12/01 15:20:03;;;;;;;;;;;2.60;99.90;;;;;;2603821;54;20061;31
2022/12/01 15:22:37;;;;;;;;;;;2.60;99.90;;;;;;2603913;54;19939;31
2022/12/01 15:25:14;;;;;;;;;;;2.60;99.90;;;;;;2603644;54;20852;31
2022/12/01 15:27:48;;;;;;;;;;;2.60;99.90;;;;;;2603980;54;19997;31
2022/12/01 15:30:24;;;;;;;;;;;2.70;99.90;;;;;;2603536;54;19934;31
2022/12/01 15:32:59;;;;;;;;;;;2.70;99.90;;;;;;2603782;54;19973;31
2022/12/01 15:35:34;;;;;;;;;;;2.60;99.90;;;;;;2622016;46;19942;31
2022/12/01 15:38:14;;;;;;;;;;;2.70;99.90;;;;;;2603420;54;20029;31
2022/12/01 15:40:48;;;;;;;;;;;2.60;99.90;;;;;;2603373;54;19990;31
2022/12/01 15:43:44;;;;;;;;;;;2.60;99.90;;;;;;2603469;54;19938;31
2022/12/01 15:46:33;;;;;;;;;;;2.60;99.90;;;;;;2603648;54;20755;31
2022/12/01 15:49:08;;;;;;;;;;;2.60;99.90;;;;;;2603667;54;19935;31
2022/12/01 15:51:42;;;;;;;;;;;2.60;99.90;;;;;;2603449;54;20768;31